createdAt,value
2023-01-30T00:00:43.090Z,92154.91
2023-01-30T00:03:15.186Z,92154.47
2023-01-30T00:05:47.329Z,92155.56
2023-01-30T00:08:19.668Z,92159.88
2023-01-30T00:10:51.732Z,92164.78
2023-01-30T00:13:24.008Z,92152.56
2023-01-30T00:15:56.818Z,92156.38
2023-01-30T00:18:29.004Z,92152.84
2023-01-30T00:21:02.111Z,92152.13
2023-01-30T00:23:35.104Z,92153.50
2023-01-30T00:26:07.613Z,92151.13
2023-01-30T00:28:40.028Z,92149.50
2023-01-30T00:31:13.208Z,92145.75
2023-01-30T00:33:45.407Z,92146.38
2023-01-30T00:36:17.402Z,92148.31
2023-01-30T00:38:49.549Z,92151.34
2023-01-30T00:41:22.463Z,92146.56
2023-01-30T00:44:12.936Z,92150.91
2023-01-30T00:47:04.224Z,92142.94
2023-01-30T00:49:36.639Z,92136.19
2023-01-30T00:52:08.713Z,92139.13
2023-01-30T00:54:40.828Z,92134.13
2023-01-30T00:57:12.853Z,92121.44
2023-01-30T00:59:44.921Z,92124.56
2023-01-30T01:02:17.882Z,92128.84
2023-01-30T01:04:50.249Z,92125.69
2023-01-30T01:07:23.356Z,92120.69
2023-01-30T01:09:55.435Z,92123.03
2023-01-30T01:12:27.523Z,92122.13
2023-01-30T01:14:59.595Z,92126.09
2023-01-30T01:17:34.141Z,92116.25
2023-01-30T01:20:06.917Z,92105.22
2023-01-30T01:22:39.157Z,92108.91
2023-01-30T01:25:11.334Z,92108.22
2023-01-30T01:27:44.957Z,92105.00
2023-01-30T01:30:17.764Z,92110.63
2023-01-30T01:32:50.573Z,92101.81
2023-01-30T01:35:22.871Z,92097.00
2023-01-30T01:37:56.386Z,92102.63
2023-01-30T01:40:46.333Z,92097.22
2023-01-30T01:43:19.403Z,92095.38
2023-01-30T01:45:53.420Z,92092.34
2023-01-30T01:48:27.647Z,92105.44
2023-01-30T01:51:01.754Z,92099.41
2023-01-30T01:53:36.098Z,92099.22
2023-01-30T01:56:08.119Z,92096.78
2023-01-30T01:58:42.799Z,92090.97
2023-01-30T02:01:14.921Z,92096.47
2023-01-30T02:03:50.473Z,92085.00
2023-01-30T02:06:22.614Z,92081.41
2023-01-30T02:08:57.650Z,92094.59
2023-01-30T02:11:31.475Z,92094.31
2023-01-30T02:14:04.062Z,92090.91
2023-01-30T02:16:36.611Z,92092.81
2023-01-30T02:19:17.450Z,92091.34
2023-01-30T02:22:08.334Z,92094.72
2023-01-30T02:24:48.636Z,92086.84
2023-01-30T02:27:28.338Z,92083.09
2023-01-30T02:30:21.942Z,92089.34
2023-01-30T02:33:01.399Z,92085.75
2023-01-30T02:35:37.614Z,92083.81
2023-01-30T02:38:16.415Z,92084.22
2023-01-30T02:40:51.878Z,92075.06
2023-01-30T02:43:27.214Z,92077.72
2023-01-30T02:46:01.952Z,92076.50
2023-01-30T02:48:37.651Z,92071.16
2023-01-30T02:51:12.303Z,92079.97
2023-01-30T02:53:46.303Z,92072.63
2023-01-30T02:56:18.767Z,92079.09
2023-01-30T02:58:54.458Z,92075.88
2023-01-30T03:01:34.392Z,92079.16
2023-01-30T03:04:17.782Z,92085.63
2023-01-30T03:07:01.054Z,92084.16
2023-01-30T03:09:38.447Z,92085.03
2023-01-30T03:12:15.629Z,92094.88
2023-01-30T03:14:51.128Z,92088.19
2023-01-30T03:17:26.172Z,92079.91
2023-01-30T03:19:59.486Z,92070.34
2023-01-30T03:22:31.588Z,92075.56
2023-01-30T03:25:04.289Z,92063.94
2023-01-30T03:27:37.502Z,92055.94
2023-01-30T03:30:11.116Z,92059.97
2023-01-30T03:32:43.148Z,92057.47
2023-01-30T03:35:17.508Z,92053.84
2023-01-30T03:37:49.960Z,92046.53
2023-01-30T03:40:23.839Z,92044.19
2023-01-30T03:42:56.021Z,92040.00
2023-01-30T03:45:28.949Z,92052.19
2023-01-30T03:48:01.326Z,92048.16
2023-01-30T03:50:34.394Z,92049.44
2023-01-30T03:53:06.471Z,92045.47
2023-01-30T03:55:39.686Z,92035.66
2023-01-30T03:58:11.892Z,92037.22
2023-01-30T04:00:44.971Z,92039.41
2023-01-30T04:03:17.969Z,92037.06
2023-01-30T04:05:50.723Z,92034.41
2023-01-30T04:08:22.810Z,92039.81
2023-01-30T04:10:54.925Z,92037.06
2023-01-30T04:13:28.174Z,92034.09
2023-01-30T04:16:17.106Z,92032.69
2023-01-30T04:19:07.663Z,92034.97
2023-01-30T04:21:40.428Z,92032.47
2023-01-30T04:24:12.493Z,92041.34
2023-01-30T04:26:44.747Z,92040.97
2023-01-30T04:29:17.437Z,92030.50
2023-01-30T04:31:51.013Z,92036.50
2023-01-30T04:34:29.898Z,92029.78
2023-01-30T04:37:03.474Z,92034.94
2023-01-30T04:39:36.128Z,92031.34
2023-01-30T04:42:08.141Z,92030.13
2023-01-30T04:44:47.752Z,92036.13
2023-01-30T04:47:24.169Z,92023.31
2023-01-30T04:49:56.317Z,92020.34
2023-01-30T04:52:29.049Z,92016.13
2023-01-30T04:55:01.598Z,92021.66
2023-01-30T04:57:33.835Z,92023.44
2023-01-30T05:00:06.786Z,92023.50
2023-01-30T05:02:41.541Z,92004.56
2023-01-30T05:05:13.810Z,92009.00
2023-01-30T05:07:46.495Z,92005.03
2023-01-30T05:10:18.621Z,91995.97
2023-01-30T05:12:50.647Z,92001.63
2023-01-30T05:15:22.761Z,92004.38
2023-01-30T05:17:54.826Z,92001.75
2023-01-30T05:20:26.938Z,91999.63
2023-01-30T05:22:59.589Z,92002.66
2023-01-30T05:25:31.744Z,92013.53
2023-01-30T05:28:04.021Z,92008.59
2023-01-30T05:30:36.685Z,92012.22
2023-01-30T05:33:08.768Z,92019.97
2023-01-30T05:35:45.778Z,92024.66
2023-01-30T05:38:18.548Z,92013.78
2023-01-30T05:40:57.717Z,92017.19
2023-01-30T05:43:30.409Z,92016.38
2023-01-30T05:46:03.703Z,92013.13
2023-01-30T05:48:35.738Z,92017.28
2023-01-30T05:51:15.348Z,92012.25
2023-01-30T05:53:48.467Z,92017.06
2023-01-30T05:56:20.632Z,92023.09
2023-01-30T05:58:53.353Z,92013.28
2023-01-30T06:01:25.788Z,92017.13
2023-01-30T06:03:58.323Z,92028.25
2023-01-30T06:06:30.373Z,92029.38
2023-01-30T06:09:03.979Z,92024.06
2023-01-30T06:11:36.077Z,92023.06
2023-01-30T06:14:08.225Z,92026.31
2023-01-30T06:16:40.323Z,92017.22
2023-01-30T06:19:12.442Z,92019.19
2023-01-30T06:21:44.508Z,92011.44
2023-01-30T06:24:17.251Z,92007.94
2023-01-30T06:26:49.394Z,92010.50
2023-01-30T06:29:21.437Z,92012.97
2023-01-30T06:31:53.572Z,92000.41
2023-01-30T06:34:25.616Z,92011.53
2023-01-30T06:36:57.723Z,92020.78
2023-01-30T06:39:30.577Z,92011.91
2023-01-30T06:42:02.673Z,92013.44
2023-01-30T06:44:34.750Z,92018.91
2023-01-30T06:47:06.823Z,92019.09
2023-01-30T06:49:38.937Z,92016.91
2023-01-30T06:52:10.933Z,92017.34
2023-01-30T06:54:43.663Z,92018.34
2023-01-30T06:57:15.663Z,92025.22
2023-01-30T06:59:47.707Z,92020.13
2023-01-30T07:02:19.692Z,92022.22
2023-01-30T07:04:51.895Z,92031.88
2023-01-30T07:07:23.909Z,92036.88
2023-01-30T07:10:07.227Z,92030.28
2023-01-30T07:12:39.637Z,92028.94
2023-01-30T07:15:11.718Z,92032.34
2023-01-30T07:17:43.866Z,92031.84
2023-01-30T07:20:16.119Z,92034.53
2023-01-30T07:22:51.340Z,92045.47
2023-01-30T07:25:25.296Z,92034.88
2023-01-30T07:27:58.037Z,92038.78
2023-01-30T07:30:31.441Z,92039.00
2023-01-30T07:33:04.441Z,92033.78
2023-01-30T07:35:37.091Z,92041.28
2023-01-30T07:38:09.283Z,92042.50
2023-01-30T07:40:42.338Z,92045.63
2023-01-30T07:43:14.393Z,92055.56
2023-01-30T07:45:47.753Z,92054.34
2023-01-30T07:48:19.764Z,92048.97
2023-01-30T07:50:55.752Z,92055.31
2023-01-30T07:53:27.915Z,92046.47
2023-01-30T07:56:06.140Z,92044.19
2023-01-30T07:58:38.145Z,92048.34
2023-01-30T08:01:10.485Z,92043.66
2023-01-30T08:03:45.124Z,92036.56
2023-01-30T08:06:17.349Z,92009.09
2023-01-30T08:08:49.436Z,92018.97
2023-01-30T08:11:22.429Z,92026.63
2023-01-30T08:13:54.435Z,92016.50
2023-01-30T08:16:26.761Z,92023.47
2023-01-30T08:18:58.848Z,92027.38
2023-01-30T08:21:30.978Z,92021.97
2023-01-30T08:24:03.115Z,92021.50
2023-01-30T08:26:36.172Z,92012.78
2023-01-30T08:29:08.299Z,92016.47
2023-01-30T08:31:40.389Z,92010.38
2023-01-30T08:34:12.469Z,92009.09
2023-01-30T08:36:46.015Z,92005.59
2023-01-30T08:39:18.018Z,92004.66
2023-01-30T08:41:51.044Z,92003.66
2023-01-30T08:44:23.213Z,91996.91
2023-01-30T08:46:55.363Z,91999.75
2023-01-30T08:49:27.345Z,91999.63
2023-01-30T08:51:59.419Z,91994.00
2023-01-30T08:54:33.359Z,91996.56
2023-01-30T08:57:06.172Z,91993.53
2023-01-30T08:59:38.142Z,91995.25
2023-01-30T09:02:10.856Z,91994.56
2023-01-30T09:04:42.917Z,91984.75
2023-01-30T09:07:14.966Z,91983.78
2023-01-30T09:09:47.908Z,91974.59
2023-01-30T09:12:20.767Z,91975.31
2023-01-30T09:14:54.875Z,91977.53
2023-01-30T09:17:26.928Z,91974.44
2023-01-30T09:19:59.666Z,91986.88
2023-01-30T09:22:31.797Z,91981.72
2023-01-30T09:25:04.143Z,91979.66
2023-01-30T09:27:36.867Z,91983.91
2023-01-30T09:30:09.508Z,91974.50
2023-01-30T09:32:42.238Z,91976.94
2023-01-30T09:35:14.461Z,91971.69
2023-01-30T09:37:47.042Z,91971.81
2023-01-30T09:40:21.465Z,91979.09
2023-01-30T09:43:03.700Z,91973.69
2023-01-30T09:45:43.795Z,91968.78
2023-01-30T09:48:19.965Z,91961.00
2023-01-30T09:51:01.023Z,91953.09
2023-01-30T09:53:38.296Z,91958.72
2023-01-30T09:56:10.861Z,91948.22
2023-01-30T09:58:45.801Z,91944.88
2023-01-30T10:01:22.821Z,91949.91
2023-01-30T10:03:59.501Z,91933.84
2023-01-30T10:06:36.192Z,91940.34
2023-01-30T10:09:10.588Z,91934.34
2023-01-30T10:11:59.437Z,91932.38
2023-01-30T10:14:46.368Z,91922.16
2023-01-30T10:17:28.093Z,91918.03
2023-01-30T10:20:10.608Z,91912.75
2023-01-30T10:22:49.564Z,91903.53
2023-01-30T10:25:27.517Z,91898.94
2023-01-30T10:28:02.465Z,91894.66
2023-01-30T10:30:34.750Z,91883.56
2023-01-30T10:33:14.799Z,91892.44
2023-01-30T10:35:57.806Z,91882.22
2023-01-30T10:38:33.072Z,91882.69
2023-01-30T10:41:09.843Z,91866.78
2023-01-30T10:43:43.825Z,91856.34
2023-01-30T10:46:21.789Z,91856.34
2023-01-30T10:48:58.216Z,91862.44
2023-01-30T10:51:38.221Z,91852.22
2023-01-30T10:54:13.169Z,91840.13
2023-01-30T10:56:50.549Z,91836.56
2023-01-30T10:59:24.163Z,91832.78
2023-01-30T11:01:59.323Z,91823.22
2023-01-30T11:04:35.686Z,91820.53
2023-01-30T11:07:08.069Z,91814.25
2023-01-30T11:09:42.028Z,91820.09
2023-01-30T11:12:14.823Z,91807.31
2023-01-30T11:14:50.927Z,91811.78
2023-01-30T11:17:28.525Z,91804.47
2023-01-30T11:20:08.113Z,91802.69
2023-01-30T11:22:45.384Z,91798.03
2023-01-30T11:25:18.879Z,91790.56
2023-01-30T11:27:52.591Z,91782.81
2023-01-30T11:30:27.251Z,91777.59
2023-01-30T11:33:07.497Z,91771.47
2023-01-30T11:35:43.735Z,91771.25
2023-01-30T11:38:20.807Z,91768.38
2023-01-30T11:41:01.551Z,91760.59
2023-01-30T11:43:34.336Z,91758.38
2023-01-30T11:46:07.667Z,91756.69
2023-01-30T11:49:08.682Z,91753.38
2023-01-30T11:51:37.002Z,91736.41
2023-01-30T11:54:12.711Z,91736.59
2023-01-30T11:56:48.214Z,91730.28
2023-01-30T11:59:24.229Z,91722.63
2023-01-30T12:02:02.923Z,91731.50
2023-01-30T12:04:35.114Z,91721.50
2023-01-30T12:07:15.762Z,91719.06
2023-01-30T12:09:49.703Z,91708.25
2023-01-30T12:12:29.511Z,91700.47
2023-01-30T12:15:11.964Z,91692.66
2023-01-30T12:17:46.045Z,91698.47
2023-01-30T12:20:23.455Z,91694.47
2023-01-30T12:23:01.778Z,91698.25
2023-01-30T12:25:39.489Z,91694.00
2023-01-30T12:28:14.687Z,91695.91
2023-01-30T12:30:49.717Z,91686.06
2023-01-30T12:33:22.646Z,91684.72
2023-01-30T12:36:00.932Z,91680.53
2023-01-30T12:38:47.815Z,91675.66
2023-01-30T12:41:27.601Z,91681.09
2023-01-30T12:44:07.983Z,91670.88
2023-01-30T12:46:48.615Z,91664.53
2023-01-30T12:49:40.430Z,91663.41
2023-01-30T12:52:26.097Z,91666.94
2023-01-30T12:55:02.497Z,91655.44
2023-01-30T12:57:41.615Z,91648.50
2023-01-30T13:00:30.711Z,91651.94
2023-01-30T13:03:14.668Z,91654.19
2023-01-30T13:05:53.557Z,91647.84
2023-01-30T13:08:33.926Z,91647.16
2023-01-30T13:11:12.761Z,91650.94
2023-01-30T13:13:50.293Z,91648.69
2023-01-30T13:16:28.046Z,91646.72
2023-01-30T13:19:04.032Z,91652.84
2023-01-30T13:21:39.562Z,91644.75
2023-01-30T13:24:17.935Z,91645.66
2023-01-30T13:26:52.814Z,91638.00
2023-01-30T13:29:29.043Z,91638.53
2023-01-30T13:32:03.310Z,91630.66
2023-01-30T13:34:37.794Z,91630.88
2023-01-30T13:37:11.410Z,91620.34
2023-01-30T13:39:45.829Z,91619.00
2023-01-30T13:42:25.181Z,91619.69
2023-01-30T13:44:57.993Z,91619.31
2023-01-30T13:47:39.015Z,91606.88
2023-01-30T13:50:30.524Z,91604.41
2023-01-30T13:53:05.143Z,91608.75
2023-01-30T13:55:40.926Z,91598.72
2023-01-30T13:58:17.366Z,91606.28
2023-01-30T14:00:52.931Z,91603.06
2023-01-30T14:03:28.410Z,91595.72
2023-01-30T14:06:01.383Z,91592.88
2023-01-30T14:08:38.408Z,91600.56
2023-01-30T14:11:31.422Z,91595.22
2023-01-30T14:14:20.805Z,91602.81
2023-01-30T14:16:54.602Z,91597.16
2023-01-30T14:19:34.943Z,91599.34
2023-01-30T14:22:24.515Z,91602.69
2023-01-30T14:25:15.061Z,91603.06
2023-01-30T14:27:49.470Z,91597.63
2023-01-30T14:30:35.237Z,91604.31
2023-01-30T14:33:22.126Z,91611.72
2023-01-30T14:36:09.025Z,91607.72
2023-01-30T14:38:43.806Z,91603.81
2023-01-30T14:41:17.207Z,91598.78
2023-01-30T14:43:52.800Z,91599.84
2023-01-30T14:46:54.527Z,91592.19
2023-01-30T14:49:31.588Z,91587.94
2023-01-30T14:52:04.037Z,91585.59
2023-01-30T14:54:42.819Z,91575.81
2023-01-30T14:57:21.119Z,91569.25
2023-01-30T15:00:14.307Z,91565.59
2023-01-30T15:02:49.067Z,91567.31
2023-01-30T15:05:27.173Z,91576.28
2023-01-30T15:08:03.962Z,91561.81
2023-01-30T15:10:46.100Z,91555.25
2023-01-30T15:13:30.002Z,91556.19
2023-01-30T15:16:08.427Z,91557.22
2023-01-30T15:18:51.211Z,91562.75
2023-01-30T15:21:36.710Z,91564.72
2023-01-30T15:24:30.236Z,91575.19
2023-01-30T15:27:10.917Z,91574.56
2023-01-30T15:30:05.585Z,91584.47
2023-01-30T15:32:37.994Z,91580.06
2023-01-30T15:35:21.232Z,91574.47
2023-01-30T15:37:54.547Z,91578.28
2023-01-30T15:40:27.732Z,91581.88
2023-01-30T15:43:10.743Z,91586.31
2023-01-30T15:45:50.645Z,91591.25
2023-01-30T15:48:36.183Z,91580.09
2023-01-30T15:51:11.070Z,91579.66
2023-01-30T15:53:44.185Z,91577.44
2023-01-30T15:56:18.328Z,91565.38
2023-01-30T15:58:51.545Z,91565.25
2023-01-30T16:01:23.692Z,91577.19
2023-01-30T16:03:57.413Z,91578.56
2023-01-30T16:06:31.942Z,91578.72
2023-01-30T16:09:04.914Z,91565.06
2023-01-30T16:11:38.641Z,91571.00
2023-01-30T16:14:12.730Z,91575.28
2023-01-30T16:16:47.498Z,91567.19
2023-01-30T16:19:22.781Z,91556.56
2023-01-30T16:21:56.290Z,91557.31
2023-01-30T16:24:29.280Z,91561.94
2023-01-30T16:27:02.972Z,91564.06
2023-01-30T16:29:44.340Z,91564.06
2023-01-30T16:32:18.933Z,91561.84
2023-01-30T16:34:51.113Z,91563.25
2023-01-30T16:37:25.694Z,91553.81
2023-01-30T16:40:12.480Z,91553.94
2023-01-30T16:42:55.357Z,91554.25
2023-01-30T16:45:42.569Z,91557.28
2023-01-30T16:48:24.677Z,91558.00
2023-01-30T16:51:14.722Z,91563.31
2023-01-30T16:54:01.944Z,91562.97
2023-01-30T16:56:35.130Z,91557.19
2023-01-30T16:59:18.089Z,91562.03
2023-01-30T17:01:53.326Z,91551.06
2023-01-30T17:04:28.759Z,91554.41
2023-01-30T17:07:03.430Z,91557.72
2023-01-30T17:09:37.511Z,91557.50
2023-01-30T17:12:29.397Z,91565.38
2023-01-30T17:15:17.558Z,91572.81
2023-01-30T17:17:50.235Z,91570.81
2023-01-30T17:20:23.436Z,91571.69
2023-01-30T17:22:58.756Z,91567.91
2023-01-30T17:25:32.429Z,91573.09
2023-01-30T17:28:04.991Z,91571.56
2023-01-30T17:30:37.073Z,91575.13
2023-01-30T17:33:11.253Z,91573.34
2023-01-30T17:35:44.207Z,91570.44
2023-01-30T17:38:16.416Z,91573.25
2023-01-30T17:40:48.589Z,91571.28
2023-01-30T17:43:20.622Z,91569.38
2023-01-30T17:45:52.790Z,91572.59
2023-01-30T17:48:24.944Z,91562.28
2023-01-30T17:50:57.670Z,91557.28
2023-01-30T17:53:29.927Z,91567.25
2023-01-30T17:56:02.055Z,91571.94
2023-01-30T17:58:34.181Z,91562.50
2023-01-30T18:01:06.297Z,91567.94
2023-01-30T18:03:38.400Z,91560.59
2023-01-30T18:06:12.385Z,91562.16
2023-01-30T18:08:44.487Z,91556.75
2023-01-30T18:11:17.009Z,91548.88
2023-01-30T18:13:49.065Z,91551.88
2023-01-30T18:16:23.139Z,91558.19
2023-01-30T18:18:55.170Z,91553.03
2023-01-30T18:21:27.968Z,91560.78
2023-01-30T18:24:00.135Z,91555.66
2023-01-30T18:26:32.989Z,91549.41
2023-01-30T18:29:05.827Z,91551.59
2023-01-30T18:31:38.519Z,91553.00
2023-01-30T18:34:10.815Z,91549.22
2023-01-30T18:36:43.595Z,91550.84
2023-01-30T18:39:15.651Z,91549.91
2023-01-30T18:41:50.527Z,91548.00
2023-01-30T18:44:22.549Z,91556.28
2023-01-30T18:46:54.583Z,91550.13
2023-01-30T18:49:26.691Z,91552.78
2023-01-30T18:51:59.499Z,91555.09
2023-01-30T18:54:31.623Z,91557.72
2023-01-30T18:57:04.142Z,91559.03
2023-01-30T18:59:36.202Z,91551.69
2023-01-30T19:02:11.002Z,91552.09
2023-01-30T19:04:43.032Z,91549.22
2023-01-30T19:07:15.899Z,91547.56
2023-01-30T19:09:47.950Z,91548.50
2023-01-30T19:12:38.031Z,91548.28
2023-01-30T19:15:10.244Z,91560.59
2023-01-30T19:17:42.381Z,91553.72
2023-01-30T19:20:14.753Z,91552.13
2023-01-30T19:22:48.710Z,91555.38
2023-01-30T19:25:21.600Z,91552.19
2023-01-30T19:27:55.629Z,91542.16
2023-01-30T19:30:28.889Z,91549.75
2023-01-30T19:33:01.141Z,91538.94
2023-01-30T19:35:33.709Z,91531.25
2023-01-30T19:38:06.816Z,91528.38
2023-01-30T19:40:42.148Z,91524.03
2023-01-30T19:43:14.514Z,91528.00
2023-01-30T19:45:56.000Z,91525.28
2023-01-30T19:48:28.146Z,91521.97
2023-01-30T19:51:02.089Z,91527.28
2023-01-30T19:53:34.922Z,91525.13
2023-01-30T19:56:07.390Z,91517.84
2023-01-30T19:58:40.499Z,91516.28
2023-01-30T20:01:13.684Z,91517.84
2023-01-30T20:03:46.106Z,91524.59
2023-01-30T20:06:19.591Z,91512.34
2023-01-30T20:08:54.819Z,91515.22
2023-01-30T20:11:27.352Z,91511.66
2023-01-30T20:14:01.047Z,91511.97
2023-01-30T20:16:35.170Z,91508.63
2023-01-30T20:19:08.309Z,91508.63
2023-01-30T20:21:40.981Z,91499.56
2023-01-30T20:24:14.071Z,91509.56
2023-01-30T20:26:48.331Z,91503.56
2023-01-30T20:29:20.818Z,91496.06
2023-01-30T20:31:53.220Z,91499.41
2023-01-30T20:34:25.292Z,91493.28
2023-01-30T20:36:59.064Z,91495.16
2023-01-30T20:39:31.803Z,91497.09
2023-01-30T20:42:04.861Z,91490.66
2023-01-30T20:44:37.454Z,91496.16
2023-01-30T20:47:10.282Z,91499.25
2023-01-30T20:49:42.311Z,91502.72
2023-01-30T20:52:14.502Z,91502.50
2023-01-30T20:54:47.213Z,91504.28
2023-01-30T20:57:19.406Z,91513.25
2023-01-30T20:59:52.048Z,91513.25
2023-01-30T21:02:24.167Z,91511.81
2023-01-30T21:04:56.217Z,91511.59
2023-01-30T21:07:31.795Z,91509.63
2023-01-30T21:10:05.061Z,91509.63
2023-01-30T21:12:37.431Z,91514.22
2023-01-30T21:15:09.701Z,91522.91
2023-01-30T21:17:41.948Z,91523.44
2023-01-30T21:20:14.213Z,91509.72
2023-01-30T21:22:46.486Z,91499.56
2023-01-30T21:25:19.379Z,91500.97
2023-01-30T21:27:51.626Z,91504.63
2023-01-30T21:30:23.826Z,91514.97
2023-01-30T21:32:56.997Z,91503.53
2023-01-30T21:35:29.704Z,91497.94
2023-01-30T21:38:20.095Z,91501.50
2023-01-30T21:41:11.515Z,91504.53
2023-01-30T21:43:46.687Z,91505.53
2023-01-30T21:46:18.841Z,91501.28
2023-01-30T21:48:50.947Z,91507.94
2023-01-30T21:51:24.621Z,91496.22
2023-01-30T21:53:57.297Z,91503.03
2023-01-30T21:56:30.655Z,91505.75
2023-01-30T21:59:03.517Z,91508.31
2023-01-30T22:01:36.775Z,91517.75
2023-01-30T22:04:09.939Z,91514.97
2023-01-30T22:06:42.524Z,91516.34
2023-01-30T22:09:15.237Z,91530.00
2023-01-30T22:11:48.573Z,91530.13
2023-01-30T22:14:20.675Z,91523.69
2023-01-30T22:16:53.166Z,91528.91
2023-01-30T22:19:25.519Z,91516.50
2023-01-30T22:21:58.242Z,91515.72
2023-01-30T22:24:30.703Z,91515.31
2023-01-30T22:27:03.534Z,91506.59
2023-01-30T22:29:36.171Z,91509.09
2023-01-30T22:32:08.357Z,91494.59
2023-01-30T22:34:40.751Z,91499.56
2023-01-30T22:37:12.805Z,91507.34
2023-01-30T22:39:45.005Z,91510.53
2023-01-30T22:42:18.271Z,91501.94
2023-01-30T22:44:50.324Z,91497.09
2023-01-30T22:47:22.391Z,91504.94
2023-01-30T22:49:54.604Z,91503.09
2023-01-30T22:52:26.656Z,91502.56
2023-01-30T22:54:59.595Z,91510.94
2023-01-30T22:57:32.267Z,91506.31
2023-01-30T23:00:04.845Z,91503.38
2023-01-30T23:02:37.111Z,91514.44
2023-01-30T23:05:09.570Z,91504.28
2023-01-30T23:07:41.623Z,91499.81
2023-01-30T23:10:13.682Z,91486.63
2023-01-30T23:13:07.329Z,91483.94
2023-01-30T23:15:42.873Z,91480.66
2023-01-30T23:18:33.496Z,91479.81
2023-01-30T23:21:10.143Z,91484.63
2023-01-30T23:23:50.866Z,91482.75
2023-01-30T23:26:23.821Z,91493.16
2023-01-30T23:28:56.643Z,91482.28
2023-01-30T23:31:29.024Z,91478.56
2023-01-30T23:34:03.373Z,91473.22
2023-01-30T23:36:35.595Z,91475.69
2023-01-30T23:39:07.687Z,91451.09
2023-01-30T23:41:40.314Z,91461.94
2023-01-30T23:44:13.088Z,91456.06
2023-01-30T23:46:45.147Z,91455.06
2023-01-30T23:49:17.407Z,91445.88
2023-01-30T23:51:49.464Z,91446.41
2023-01-30T23:54:21.516Z,91446.72
2023-01-30T23:56:53.837Z,91456.94
2023-01-30T23:59:26.524Z,91470.03
